sensor_id;sensor_type;location;lat;lon;timestamp;P1;durP1;ratioP1;P2;durP2;ratioP2
16922;SDS011;8578;50.938;13.556;2023-11-21T00:00:03;0.87;;;0.77;;
16922;SDS011;8578;50.938;13.556;2023-11-21T00:02:38;2.63;;;1.20;;
16922;SDS011;8578;50.938;13.556;2023-11-21T00:05:08;3.93;;;1.00;;
16922;SDS011;8578;50.938;13.556;2023-11-21T00:07:36;1.30;;;1.00;;
16922;SDS011;8578;50.938;13.556;2023-11-21T00:10:06;3.07;;;1.00;;
16922;SDS011;8578;50.938;13.556;2023-11-21T00:12:34;1.50;;;0.80;;
16922;SDS011;8578;50.938;13.556;2023-11-21T00:15:02;2.07;;;1.20;;
16922;SDS011;8578;50.938;13.556;2023-11-21T00:17:31;2.30;;;1.13;;
16922;SDS011;8578;50.938;13.556;2023-11-21T00:19:59;2.63;;;1.20;;
16922;SDS011;8578;50.938;13.556;2023-11-21T00:22:28;1.30;;;0.90;;
16922;SDS011;8578;50.938;13.556;2023-11-21T00:24:56;4.50;;;1.47;;
16922;SDS011;8578;50.938;13.556;2023-11-21T00:27:24;1.40;;;1.10;;
16922;SDS011;8578;50.938;13.556;2023-11-21T00:29:52;2.53;;;1.17;;
16922;SDS011;8578;50.938;13.556;2023-11-21T00:32:20;4.37;;;1.30;;
16922;SDS011;8578;50.938;13.556;2023-11-21T00:34:48;2.10;;;1.47;;
16922;SDS011;8578;50.938;13.556;2023-11-21T00:37:15;1.70;;;1.30;;
16922;SDS011;8578;50.938;13.556;2023-11-21T00:39:44;2.40;;;1.50;;
16922;SDS011;8578;50.938;13.556;2023-11-21T00:42:12;5.03;;;1.47;;
16922;SDS011;8578;50.938;13.556;2023-11-21T00:44:40;3.43;;;1.60;;
16922;SDS011;8578;50.938;13.556;2023-11-21T00:47:08;4.73;;;1.50;;
16922;SDS011;8578;50.938;13.556;2023-11-21T00:49:35;2.43;;;1.43;;
16922;SDS011;8578;50.938;13.556;2023-11-21T00:52:06;2.07;;;1.37;;
16922;SDS011;8578;50.938;13.556;2023-11-21T00:54:33;2.17;;;1.40;;
16922;SDS011;8578;50.938;13.556;2023-11-21T00:57:02;3.10;;;1.53;;
16922;SDS011;8578;50.938;13.556;2023-11-21T00:59:30;3.00;;;1.20;;
16922;SDS011;8578;50.938;13.556;2023-11-21T01:01:58;2.27;;;1.20;;
16922;SDS011;8578;50.938;13.556;2023-11-21T01:04:27;2.47;;;1.40;;
16922;SDS011;8578;50.938;13.556;2023-11-21T01:06:54;2.77;;;1.53;;
16922;SDS011;8578;50.938;13.556;2023-11-21T01:09:22;2.73;;;1.47;;
16922;SDS011;8578;50.938;13.556;2023-11-21T01:11:51;1.67;;;1.30;;
16922;SDS011;8578;50.938;13.556;2023-11-21T01:14:19;4.43;;;1.30;;
16922;SDS011;8578;50.938;13.556;2023-11-21T01:16:47;4.13;;;1.27;;
16922;SDS011;8578;50.938;13.556;2023-11-21T01:19:15;6.87;;;1.63;;
16922;SDS011;8578;50.938;13.556;2023-11-21T01:21:43;3.73;;;1.60;;
16922;SDS011;8578;50.938;13.556;2023-11-21T01:24:11;4.87;;;1.50;;
16922;SDS011;8578;50.938;13.556;2023-11-21T01:26:38;3.53;;;1.50;;
16922;SDS011;8578;50.938;13.556;2023-11-21T01:29:06;2.77;;;1.47;;
16922;SDS011;8578;50.938;13.556;2023-11-21T01:31:35;4.23;;;1.63;;
16922;SDS011;8578;50.938;13.556;2023-11-21T01:34:03;4.53;;;1.60;;
16922;SDS011;8578;50.938;13.556;2023-11-21T01:36:31;5.37;;;1.40;;
16922;SDS011;8578;50.938;13.556;2023-11-21T01:38:59;3.87;;;1.23;;
16922;SDS011;8578;50.938;13.556;2023-11-21T01:41:27;2.90;;;1.37;;
16922;SDS011;8578;50.938;13.556;2023-11-21T01:43:56;4.73;;;1.30;;
16922;SDS011;8578;50.938;13.556;2023-11-21T01:46:23;3.37;;;1.30;;
16922;SDS011;8578;50.938;13.556;2023-11-21T01:48:52;6.37;;;1.30;;
16922;SDS011;8578;50.938;13.556;2023-11-21T01:51:20;5.90;;;1.40;;
16922;SDS011;8578;50.938;13.556;2023-11-21T01:53:48;3.23;;;1.00;;
16922;SDS011;8578;50.938;13.556;2023-11-21T01:56:16;2.90;;;0.87;;
16922;SDS011;8578;50.938;13.556;2023-11-21T01:58:44;2.07;;;1.10;;
16922;SDS011;8578;50.938;13.556;2023-11-21T02:01:13;3.10;;;1.00;;
16922;SDS011;8578;50.938;13.556;2023-11-21T02:03:42;5.83;;;1.30;;
16922;SDS011;8578;50.938;13.556;2023-11-21T02:06:11;3.73;;;0.90;;
16922;SDS011;8578;50.938;13.556;2023-11-21T02:08:38;2.63;;;1.20;;
16922;SDS011;8578;50.938;13.556;2023-11-21T02:11:10;3.10;;;1.10;;
16922;SDS011;8578;50.938;13.556;2023-11-21T02:13:40;2.60;;;1.23;;
16922;SDS011;8578;50.938;13.556;2023-11-21T02:16:10;1.27;;;0.70;;
16922;SDS011;8578;50.938;13.556;2023-11-21T02:18:39;3.40;;;0.93;;
16922;SDS011;8578;50.938;13.556;2023-11-21T02:21:10;2.33;;;1.00;;
16922;SDS011;8578;50.938;13.556;2023-11-21T02:23:39;4.63;;;1.00;;
16922;SDS011;8578;50.938;13.556;2023-11-21T02:26:10;5.57;;;1.20;;
16922;SDS011;8578;50.938;13.556;2023-11-21T02:28:38;6.07;;;1.20;;
16922;SDS011;8578;50.938;13.556;2023-11-21T02:31:06;4.10;;;0.90;;
16922;SDS011;8578;50.938;13.556;2023-11-21T02:33:34;1.80;;;0.97;;
16922;SDS011;8578;50.938;13.556;2023-11-21T02:36:01;2.63;;;1.20;;
16922;SDS011;8578;50.938;13.556;2023-11-21T02:41:55;4.13;;;0.90;;
16922;SDS011;8578;50.938;13.556;2023-11-21T02:44:22;7.90;;;1.50;;
16922;SDS011;8578;50.938;13.556;2023-11-21T02:46:50;2.67;;;1.00;;
16922;SDS011;8578;50.938;13.556;2023-11-21T02:49:17;5.63;;;1.00;;
16922;SDS011;8578;50.938;13.556;2023-11-21T02:51:45;3.73;;;1.20;;
16922;SDS011;8578;50.938;13.556;2023-11-21T02:54:12;3.17;;;1.10;;
16922;SDS011;8578;50.938;13.556;2023-11-21T02:56:42;4.77;;;1.50;;
16922;SDS011;8578;50.938;13.556;2023-11-21T02:59:11;1.83;;;1.00;;
16922;SDS011;8578;50.938;13.556;2023-11-21T03:01:38;1.97;;;0.90;;
16922;SDS011;8578;50.938;13.556;2023-11-21T03:04:07;3.20;;;1.10;;
16922;SDS011;8578;50.938;13.556;2023-11-21T03:06:35;4.37;;;1.37;;
16922;SDS011;8578;50.938;13.556;2023-11-21T03:09:02;4.53;;;1.30;;
16922;SDS011;8578;50.938;13.556;2023-11-21T03:11:30;2.97;;;1.30;;
16922;SDS011;8578;50.938;13.556;2023-11-21T03:13:58;3.10;;;1.27;;
16922;SDS011;8578;50.938;13.556;2023-11-21T03:16:28;3.03;;;1.40;;
16922;SDS011;8578;50.938;13.556;2023-11-21T03:18:56;5.60;;;1.20;;
16922;SDS011;8578;50.938;13.556;2023-11-21T03:21:24;3.63;;;1.30;;
16922;SDS011;8578;50.938;13.556;2023-11-21T03:23:52;3.20;;;1.43;;
16922;SDS011;8578;50.938;13.556;2023-11-21T03:26:21;2.83;;;1.20;;
16922;SDS011;8578;50.938;13.556;2023-11-21T03:28:49;2.23;;;1.10;;
16922;SDS011;8578;50.938;13.556;2023-11-21T03:31:20;4.13;;;1.37;;
16922;SDS011;8578;50.938;13.556;2023-11-21T03:33:49;3.00;;;1.07;;
16922;SDS011;8578;50.938;13.556;2023-11-21T03:36:17;4.67;;;1.63;;
16922;SDS011;8578;50.938;13.556;2023-11-21T03:38:45;4.53;;;1.33;;
16922;SDS011;8578;50.938;13.556;2023-11-21T03:41:12;3.27;;;1.30;;
16922;SDS011;8578;50.938;13.556;2023-11-21T03:43:40;2.67;;;1.37;;
16922;SDS011;8578;50.938;13.556;2023-11-21T03:46:08;2.20;;;1.33;;
16922;SDS011;8578;50.938;13.556;2023-11-21T03:48:36;8.27;;;1.60;;
16922;SDS011;8578;50.938;13.556;2023-11-21T03:51:05;4.77;;;1.43;;
16922;SDS011;8578;50.938;13.556;2023-11-21T03:53:33;3.63;;;1.30;;
16922;SDS011;8578;50.938;13.556;2023-11-21T03:56:02;3.33;;;1.83;;
16922;SDS011;8578;50.938;13.556;2023-11-21T03:58:30;3.33;;;1.50;;
16922;SDS011;8578;50.938;13.556;2023-11-21T04:00:57;7.27;;;1.93;;
16922;SDS011;8578;50.938;13.556;2023-11-21T04:03:25;4.17;;;1.70;;
16922;SDS011;8578;50.938;13.556;2023-11-21T04:05:52;2.83;;;1.57;;
16922;SDS011;8578;50.938;13.556;2023-11-21T04:08:21;5.77;;;1.70;;
16922;SDS011;8578;50.938;13.556;2023-11-21T04:10:49;5.03;;;1.40;;
16922;SDS011;8578;50.938;13.556;2023-11-21T04:13:17;3.10;;;1.47;;
16922;SDS011;8578;50.938;13.556;2023-11-21T04:15:44;5.63;;;2.00;;
16922;SDS011;8578;50.938;13.556;2023-11-21T04:18:12;6.23;;;1.97;;
16922;SDS011;8578;50.938;13.556;2023-11-21T04:20:40;3.70;;;1.63;;
16922;SDS011;8578;50.938;13.556;2023-11-21T04:23:07;4.27;;;1.77;;
16922;SDS011;8578;50.938;13.556;2023-11-21T04:25:38;6.20;;;1.60;;
16922;SDS011;8578;50.938;13.556;2023-11-21T04:28:05;4.73;;;1.87;;
16922;SDS011;8578;50.938;13.556;2023-11-21T04:30:33;4.00;;;1.73;;
16922;SDS011;8578;50.938;13.556;2023-11-21T04:33:01;2.97;;;1.67;;
16922;SDS011;8578;50.938;13.556;2023-11-21T04:35:29;3.90;;;1.87;;
16922;SDS011;8578;50.938;13.556;2023-11-21T04:37:56;3.50;;;1.70;;
16922;SDS011;8578;50.938;13.556;2023-11-21T04:40:25;4.23;;;1.83;;
16922;SDS011;8578;50.938;13.556;2023-11-21T04:42:54;5.27;;;2.07;;
16922;SDS011;8578;50.938;13.556;2023-11-21T04:45:23;4.40;;;1.63;;
16922;SDS011;8578;50.938;13.556;2023-11-21T04:47:51;6.83;;;1.87;;
16922;SDS011;8578;50.938;13.556;2023-11-21T04:50:19;2.83;;;1.80;;
16922;SDS011;8578;50.938;13.556;2023-11-21T04:52:47;4.43;;;1.67;;
16922;SDS011;8578;50.938;13.556;2023-11-21T04:55:15;7.30;;;2.70;;
16922;SDS011;8578;50.938;13.556;2023-11-21T04:57:43;4.20;;;1.80;;
16922;SDS011;8578;50.938;13.556;2023-11-21T05:00:13;6.33;;;1.70;;
16922;SDS011;8578;50.938;13.556;2023-11-21T05:02:42;5.47;;;2.10;;
16922;SDS011;8578;50.938;13.556;2023-11-21T05:05:11;5.50;;;1.87;;
16922;SDS011;8578;50.938;13.556;2023-11-21T05:07:38;3.27;;;2.00;;
16922;SDS011;8578;50.938;13.556;2023-11-21T05:10:08;6.67;;;1.93;;
16922;SDS011;8578;50.938;13.556;2023-11-21T05:12:38;3.83;;;1.90;;
16922;SDS011;8578;50.938;13.556;2023-11-21T05:15:06;6.90;;;2.10;;
16922;SDS011;8578;50.938;13.556;2023-11-21T05:17:39;4.07;;;1.90;;
16922;SDS011;8578;50.938;13.556;2023-11-21T05:20:10;3.83;;;1.53;;
16922;SDS011;8578;50.938;13.556;2023-11-21T05:22:39;4.33;;;2.13;;
16922;SDS011;8578;50.938;13.556;2023-11-21T05:25:09;5.60;;;2.20;;
16922;SDS011;8578;50.938;13.556;2023-11-21T05:27:37;4.03;;;1.77;;
16922;SDS011;8578;50.938;13.556;2023-11-21T05:30:06;2.53;;;1.73;;
16922;SDS011;8578;50.938;13.556;2023-11-21T05:32:35;7.17;;;2.20;;
16922;SDS011;8578;50.938;13.556;2023-11-21T05:35:05;3.17;;;1.73;;
16922;SDS011;8578;50.938;13.556;2023-11-21T05:37:35;8.90;;;2.50;;
16922;SDS011;8578;50.938;13.556;2023-11-21T05:40:06;6.03;;;2.20;;
16922;SDS011;8578;50.938;13.556;2023-11-21T05:42:35;5.27;;;2.50;;
16922;SDS011;8578;50.938;13.556;2023-11-21T05:45:05;4.77;;;2.27;;
16922;SDS011;8578;50.938;13.556;2023-11-21T05:47:36;4.83;;;2.17;;
16922;SDS011;8578;50.938;13.556;2023-11-21T05:50:06;5.73;;;1.97;;
16922;SDS011;8578;50.938;13.556;2023-11-21T05:52:36;5.87;;;2.03;;
16922;SDS011;8578;50.938;13.556;2023-11-21T05:55:04;5.43;;;2.40;;
16922;SDS011;8578;50.938;13.556;2023-11-21T05:57:34;10.27;;;2.30;;
16922;SDS011;8578;50.938;13.556;2023-11-21T06:00:03;5.20;;;2.20;;
16922;SDS011;8578;50.938;13.556;2023-11-21T06:02:37;4.10;;;2.20;;
16922;SDS011;8578;50.938;13.556;2023-11-21T06:05:07;8.23;;;2.57;;
16922;SDS011;8578;50.938;13.556;2023-11-21T06:07:35;5.30;;;2.30;;
16922;SDS011;8578;50.938;13.556;2023-11-21T06:10:04;4.30;;;2.20;;
16922;SDS011;8578;50.938;13.556;2023-11-21T06:12:36;7.60;;;2.80;;
16922;SDS011;8578;50.938;13.556;2023-11-21T06:15:04;6.63;;;3.17;;
16922;SDS011;8578;50.938;13.556;2023-11-21T06:17:34;6.87;;;3.23;;
16922;SDS011;8578;50.938;13.556;2023-11-21T06:20:04;10.93;;;3.07;;
16922;SDS011;8578;50.938;13.556;2023-11-21T06:22:37;6.37;;;2.40;;
16922;SDS011;8578;50.938;13.556;2023-11-21T06:25:05;6.33;;;2.43;;
16922;SDS011;8578;50.938;13.556;2023-11-21T06:27:36;8.00;;;2.50;;
16922;SDS011;8578;50.938;13.556;2023-11-21T06:30:04;6.23;;;2.70;;
16922;SDS011;8578;50.938;13.556;2023-11-21T06:32:33;7.30;;;3.00;;
16922;SDS011;8578;50.938;13.556;2023-11-21T06:35:02;5.97;;;2.67;;
16922;SDS011;8578;50.938;13.556;2023-11-21T06:37:31;4.63;;;2.63;;
16922;SDS011;8578;50.938;13.556;2023-11-21T06:40:00;5.93;;;2.30;;
16922;SDS011;8578;50.938;13.556;2023-11-21T06:42:30;10.97;;;2.87;;
16922;SDS011;8578;50.938;13.556;2023-11-21T06:44:58;6.03;;;2.90;;
16922;SDS011;8578;50.938;13.556;2023-11-21T06:47:26;9.67;;;2.73;;
16922;SDS011;8578;50.938;13.556;2023-11-21T06:49:56;6.40;;;2.63;;
16922;SDS011;8578;50.938;13.556;2023-11-21T06:52:24;7.80;;;3.30;;
16922;SDS011;8578;50.938;13.556;2023-11-21T06:54:51;5.47;;;2.37;;
16922;SDS011;8578;50.938;13.556;2023-11-21T06:57:22;4.77;;;2.60;;
16922;SDS011;8578;50.938;13.556;2023-11-21T06:59:50;5.20;;;2.77;;
16922;SDS011;8578;50.938;13.556;2023-11-21T07:02:18;7.97;;;2.83;;
16922;SDS011;8578;50.938;13.556;2023-11-21T07:04:46;6.60;;;2.40;;
16922;SDS011;8578;50.938;13.556;2023-11-21T07:07:13;6.37;;;2.53;;
16922;SDS011;8578;50.938;13.556;2023-11-21T07:09:42;4.70;;;2.50;;
16922;SDS011;8578;50.938;13.556;2023-11-21T07:12:09;6.83;;;2.80;;
16922;SDS011;8578;50.938;13.556;2023-11-21T07:14:38;10.23;;;2.60;;
16922;SDS011;8578;50.938;13.556;2023-11-21T07:17:09;6.97;;;2.73;;
16922;SDS011;8578;50.938;13.556;2023-11-21T07:19:38;5.80;;;2.87;;
16922;SDS011;8578;50.938;13.556;2023-11-21T07:22:06;6.50;;;2.33;;
16922;SDS011;8578;50.938;13.556;2023-11-21T07:24:34;6.23;;;2.83;;
16922;SDS011;8578;50.938;13.556;2023-11-21T07:27:03;6.50;;;3.03;;
16922;SDS011;8578;50.938;13.556;2023-11-21T07:29:30;7.77;;;2.83;;
16922;SDS011;8578;50.938;13.556;2023-11-21T07:32:00;6.47;;;2.73;;
16922;SDS011;8578;50.938;13.556;2023-11-21T07:34:28;6.67;;;3.30;;
16922;SDS011;8578;50.938;13.556;2023-11-21T07:36:56;6.80;;;3.17;;
16922;SDS011;8578;50.938;13.556;2023-11-21T07:39:23;5.60;;;2.93;;
16922;SDS011;8578;50.938;13.556;2023-11-21T07:41:51;6.43;;;3.40;;
16922;SDS011;8578;50.938;13.556;2023-11-21T07:44:19;9.23;;;3.60;;
16922;SDS011;8578;50.938;13.556;2023-11-21T07:46:48;11.03;;;3.90;;
16922;SDS011;8578;50.938;13.556;2023-11-21T07:49:17;9.67;;;3.63;;
16922;SDS011;8578;50.938;13.556;2023-11-21T07:51:48;6.17;;;3.23;;
16922;SDS011;8578;50.938;13.556;2023-11-21T07:54:16;6.77;;;3.27;;
16922;SDS011;8578;50.938;13.556;2023-11-21T07:56:43;8.67;;;3.47;;
16922;SDS011;8578;50.938;13.556;2023-11-21T07:59:11;9.57;;;3.70;;
16922;SDS011;8578;50.938;13.556;2023-11-21T08:01:41;9.57;;;4.23;;
16922;SDS011;8578;50.938;13.556;2023-11-21T08:04:09;7.50;;;3.83;;
16922;SDS011;8578;50.938;13.556;2023-11-21T08:06:38;6.83;;;3.53;;
16922;SDS011;8578;50.938;13.556;2023-11-21T08:09:08;5.50;;;3.30;;
16922;SDS011;8578;50.938;13.556;2023-11-21T08:11:37;10.50;;;3.33;;
16922;SDS011;8578;50.938;13.556;2023-11-21T08:14:05;7.27;;;3.53;;
16922;SDS011;8578;50.938;13.556;2023-11-21T08:16:32;9.73;;;3.60;;
16922;SDS011;8578;50.938;13.556;2023-11-21T08:19:00;9.33;;;4.40;;
16922;SDS011;8578;50.938;13.556;2023-11-21T08:21:29;11.37;;;4.27;;
16922;SDS011;8578;50.938;13.556;2023-11-21T08:23:58;8.03;;;4.17;;
16922;SDS011;8578;50.938;13.556;2023-11-21T08:26:27;14.43;;;4.50;;
16922;SDS011;8578;50.938;13.556;2023-11-21T08:28:54;8.60;;;4.30;;
16922;SDS011;8578;50.938;13.556;2023-11-21T08:31:23;14.03;;;5.10;;
16922;SDS011;8578;50.938;13.556;2023-11-21T08:33:51;8.57;;;4.97;;
16922;SDS011;8578;50.938;13.556;2023-11-21T08:36:21;10.47;;;5.40;;
16922;SDS011;8578;50.938;13.556;2023-11-21T08:38:51;9.97;;;4.27;;
16922;SDS011;8578;50.938;13.556;2023-11-21T08:41:22;8.93;;;4.00;;
16922;SDS011;8578;50.938;13.556;2023-11-21T08:43:50;8.43;;;4.03;;
16922;SDS011;8578;50.938;13.556;2023-11-21T08:46:18;6.67;;;3.53;;
16922;SDS011;8578;50.938;13.556;2023-11-21T08:48:47;7.27;;;3.70;;
16922;SDS011;8578;50.938;13.556;2023-11-21T08:51:15;10.30;;;3.50;;
16922;SDS011;8578;50.938;13.556;2023-11-21T08:53:43;6.40;;;3.27;;
16922;SDS011;8578;50.938;13.556;2023-11-21T08:56:12;7.87;;;3.73;;
16922;SDS011;8578;50.938;13.556;2023-11-21T08:58:41;8.57;;;4.33;;
16922;SDS011;8578;50.938;13.556;2023-11-21T09:01:09;8.50;;;3.90;;
16922;SDS011;8578;50.938;13.556;2023-11-21T09:03:36;4.87;;;2.97;;
16922;SDS011;8578;50.938;13.556;2023-11-21T09:06:04;7.27;;;3.50;;
16922;SDS011;8578;50.938;13.556;2023-11-21T09:08:32;6.17;;;3.17;;
16922;SDS011;8578;50.938;13.556;2023-11-21T09:11:00;5.47;;;3.60;;
16922;SDS011;8578;50.938;13.556;2023-11-21T09:13:27;5.67;;;2.90;;
16922;SDS011;8578;50.938;13.556;2023-11-21T09:15:58;6.47;;;3.17;;
16922;SDS011;8578;50.938;13.556;2023-11-21T09:18:25;4.53;;;2.60;;
16922;SDS011;8578;50.938;13.556;2023-11-21T09:20:53;3.83;;;2.70;;
16922;SDS011;8578;50.938;13.556;2023-11-21T09:23:20;5.53;;;2.53;;
16922;SDS011;8578;50.938;13.556;2023-11-21T09:25:48;6.03;;;2.77;;
16922;SDS011;8578;50.938;13.556;2023-11-21T09:28:16;3.60;;;2.33;;
16922;SDS011;8578;50.938;13.556;2023-11-21T09:30:43;4.40;;;2.47;;
16922;SDS011;8578;50.938;13.556;2023-11-21T09:33:13;4.23;;;2.60;;
16922;SDS011;8578;50.938;13.556;2023-11-21T09:35:41;3.40;;;2.03;;
16922;SDS011;8578;50.938;13.556;2023-11-21T09:38:10;5.07;;;1.90;;
16922;SDS011;8578;50.938;13.556;2023-11-21T09:40:38;3.40;;;1.60;;
16922;SDS011;8578;50.938;13.556;2023-11-21T09:43:06;4.97;;;1.93;;
16922;SDS011;8578;50.938;13.556;2023-11-21T09:45:35;4.90;;;1.90;;
16922;SDS011;8578;50.938;13.556;2023-11-21T09:48:03;2.73;;;1.90;;
16922;SDS011;8578;50.938;13.556;2023-11-21T09:50:33;3.07;;;2.10;;
16922;SDS011;8578;50.938;13.556;2023-11-21T09:53:06;1.90;;;1.67;;
16922;SDS011;8578;50.938;13.556;2023-11-21T09:55:37;2.47;;;1.60;;
16922;SDS011;8578;50.938;13.556;2023-11-21T09:58:07;3.30;;;1.80;;
16922;SDS011;8578;50.938;13.556;2023-11-21T10:00:40;4.60;;;1.93;;
16922;SDS011;8578;50.938;13.556;2023-11-21T10:03:08;2.73;;;2.17;;
16922;SDS011;8578;50.938;13.556;2023-11-21T10:05:37;1.87;;;1.40;;
16922;SDS011;8578;50.938;13.556;2023-11-21T10:08:06;1.73;;;1.33;;
16922;SDS011;8578;50.938;13.556;2023-11-21T10:10:34;3.60;;;1.60;;
16922;SDS011;8578;50.938;13.556;2023-11-21T10:13:03;3.57;;;1.00;;
16922;SDS011;8578;50.938;13.556;2023-11-21T10:15:33;1.47;;;1.23;;
16922;SDS011;8578;50.938;13.556;2023-11-21T10:18:04;1.63;;;1.20;;
16922;SDS011;8578;50.938;13.556;2023-11-21T10:20:33;2.40;;;0.50;;
16922;SDS011;8578;50.938;13.556;2023-11-21T10:23:02;2.83;;;0.40;;
16922;SDS011;8578;50.938;13.556;2023-11-21T10:25:30;0.30;;;0.27;;
16922;SDS011;8578;50.938;13.556;2023-11-21T10:27:59;0.60;;;0.33;;
16922;SDS011;8578;50.938;13.556;2023-11-21T10:30:28;0.40;;;0.20;;
16922;SDS011;8578;50.938;13.556;2023-11-21T10:32:59;0.60;;;0.30;;
16922;SDS011;8578;50.938;13.556;2023-11-21T10:35:38;0.20;;;0.20;;
16922;SDS011;8578;50.938;13.556;2023-11-21T10:38:08;0.57;;;0.40;;
16922;SDS011;8578;50.938;13.556;2023-11-21T10:40:37;0.87;;;0.40;;
16922;SDS011;8578;50.938;13.556;2023-11-21T10:43:06;0.80;;;0.63;;
16922;SDS011;8578;50.938;13.556;2023-11-21T10:45:36;1.57;;;0.97;;
16922;SDS011;8578;50.938;13.556;2023-11-21T10:48:05;1.00;;;0.80;;
16922;SDS011;8578;50.938;13.556;2023-11-21T10:50:33;1.33;;;1.00;;
16922;SDS011;8578;50.938;13.556;2023-11-21T10:53:02;1.57;;;1.33;;
16922;SDS011;8578;50.938;13.556;2023-11-21T10:55:32;1.67;;;1.10;;
16922;SDS011;8578;50.938;13.556;2023-11-21T10:58:00;49.73;;;2.90;;
16922;SDS011;8578;50.938;13.556;2023-11-21T11:00:30;92.37;;;4.53;;
16922;SDS011;8578;50.938;13.556;2023-11-21T11:02:58;60.33;;;2.80;;
16922;SDS011;8578;50.938;13.556;2023-11-21T11:05:28;93.53;;;4.17;;
16922;SDS011;8578;50.938;13.556;2023-11-21T11:07:58;112.73;;;4.87;;
16922;SDS011;8578;50.938;13.556;2023-11-21T11:10:27;50.20;;;3.00;;
16922;SDS011;8578;50.938;13.556;2023-11-21T11:12:57;205.10;;;7.57;;
16922;SDS011;8578;50.938;13.556;2023-11-21T11:15:26;215.73;;;8.63;;
16922;SDS011;8578;50.938;13.556;2023-11-21T11:17:54;253.73;;;8.47;;
16922;SDS011;8578;50.938;13.556;2023-11-21T11:20:25;150.73;;;6.37;;
16922;SDS011;8578;50.938;13.556;2023-11-21T11:22:59;81.73;;;4.70;;
16922;SDS011;8578;50.938;13.556;2023-11-21T11:25:35;111.23;;;5.97;;
16922;SDS011;8578;50.938;13.556;2023-11-21T11:28:10;92.80;;;6.63;;
16922;SDS011;8578;50.938;13.556;2023-11-21T11:30:41;83.93;;;5.50;;
16922;SDS011;8578;50.938;13.556;2023-11-21T11:33:14;47.10;;;4.27;;
16922;SDS011;8578;50.938;13.556;2023-11-21T11:35:51;4.63;;;2.63;;
16922;SDS011;8578;50.938;13.556;2023-11-21T11:38:20;15.50;;;3.33;;
16922;SDS011;8578;50.938;13.556;2023-11-21T11:40:48;10.63;;;3.00;;
16922;SDS011;8578;50.938;13.556;2023-11-21T11:43:25;30.53;;;4.43;;
16922;SDS011;8578;50.938;13.556;2023-11-21T11:45:55;39.63;;;4.73;;
16922;SDS011;8578;50.938;13.556;2023-11-21T11:48:23;64.43;;;4.77;;
16922;SDS011;8578;50.938;13.556;2023-11-21T11:53:37;201.63;;;9.33;;
16922;SDS011;8578;50.938;13.556;2023-11-21T11:56:25;88.47;;;5.17;;
16922;SDS011;8578;50.938;13.556;2023-11-21T11:58:55;119.50;;;7.07;;
16922;SDS011;8578;50.938;13.556;2023-11-21T12:01:24;130.57;;;7.80;;
16922;SDS011;8578;50.938;13.556;2023-11-21T12:06:40;34.57;;;5.17;;
16922;SDS011;8578;50.938;13.556;2023-11-21T12:09:10;9.47;;;3.53;;
16922;SDS011;8578;50.938;13.556;2023-11-21T12:11:40;8.73;;;3.70;;
16922;SDS011;8578;50.938;13.556;2023-11-21T12:14:11;18.27;;;3.60;;
16922;SDS011;8578;50.938;13.556;2023-11-21T12:16:39;17.50;;;4.50;;
16922;SDS011;8578;50.938;13.556;2023-11-21T12:19:09;21.77;;;4.30;;
16922;SDS011;8578;50.938;13.556;2023-11-21T12:21:36;12.77;;;5.00;;
16922;SDS011;8578;50.938;13.556;2023-11-21T12:24:05;46.67;;;5.50;;
16922;SDS011;8578;50.938;13.556;2023-11-21T12:26:35;56.07;;;5.73;;
16922;SDS011;8578;50.938;13.556;2023-11-21T12:29:02;39.87;;;5.27;;
16922;SDS011;8578;50.938;13.556;2023-11-21T12:31:32;25.43;;;6.23;;
16922;SDS011;8578;50.938;13.556;2023-11-21T12:34:00;135.47;;;8.57;;
16922;SDS011;8578;50.938;13.556;2023-11-21T12:36:28;24.87;;;3.90;;
16922;SDS011;8578;50.938;13.556;2023-11-21T12:38:56;84.97;;;6.63;;
16922;SDS011;8578;50.938;13.556;2023-11-21T12:41:24;43.83;;;3.93;;
16922;SDS011;8578;50.938;13.556;2023-11-21T12:43:52;59.57;;;5.33;;
16922;SDS011;8578;50.938;13.556;2023-11-21T12:46:20;56.07;;;5.83;;
16922;SDS011;8578;50.938;13.556;2023-11-21T12:48:50;51.83;;;6.03;;
16922;SDS011;8578;50.938;13.556;2023-11-21T12:51:18;23.80;;;4.87;;
16922;SDS011;8578;50.938;13.556;2023-11-21T12:53:45;19.27;;;4.67;;
16922;SDS011;8578;50.938;13.556;2023-11-21T12:56:14;6.17;;;3.50;;
16922;SDS011;8578;50.938;13.556;2023-11-21T12:58:44;6.77;;;3.03;;
16922;SDS011;8578;50.938;13.556;2023-11-21T13:01:13;5.90;;;2.70;;
16922;SDS011;8578;50.938;13.556;2023-11-21T13:03:48;6.63;;;3.43;;
16922;SDS011;8578;50.938;13.556;2023-11-21T13:06:18;7.67;;;4.20;;
16922;SDS011;8578;50.938;13.556;2023-11-21T13:08:51;8.50;;;4.27;;
16922;SDS011;8578;50.938;13.556;2023-11-21T13:11:19;12.37;;;4.13;;
16922;SDS011;8578;50.938;13.556;2023-11-21T13:13:47;7.30;;;4.43;;
16922;SDS011;8578;50.938;13.556;2023-11-21T13:16:16;8.03;;;4.63;;
16922;SDS011;8578;50.938;13.556;2023-11-21T13:18:43;7.53;;;3.63;;
16922;SDS011;8578;50.938;13.556;2023-11-21T13:21:11;7.43;;;4.13;;
16922;SDS011;8578;50.938;13.556;2023-11-21T13:23:43;6.13;;;3.40;;
16922;SDS011;8578;50.938;13.556;2023-11-21T13:26:12;7.77;;;3.97;;
16922;SDS011;8578;50.938;13.556;2023-11-21T13:28:42;5.90;;;3.57;;
16922;SDS011;8578;50.938;13.556;2023-11-21T13:31:13;5.87;;;3.13;;
16922;SDS011;8578;50.938;13.556;2023-11-21T13:33:52;4.53;;;2.40;;
16922;SDS011;8578;50.938;13.556;2023-11-21T13:36:23;4.83;;;2.73;;
16922;SDS011;8578;50.938;13.556;2023-11-21T13:38:53;4.73;;;2.70;;
16922;SDS011;8578;50.938;13.556;2023-11-21T13:41:22;5.53;;;3.00;;
16922;SDS011;8578;50.938;13.556;2023-11-21T13:43:56;5.43;;;3.10;;
16922;SDS011;8578;50.938;13.556;2023-11-21T13:46:30;5.13;;;2.90;;
16922;SDS011;8578;50.938;13.556;2023-11-21T13:49:04;5.37;;;3.23;;
16922;SDS011;8578;50.938;13.556;2023-11-21T13:51:36;6.13;;;3.53;;
16922;SDS011;8578;50.938;13.556;2023-11-21T13:54:10;6.30;;;3.00;;
16922;SDS011;8578;50.938;13.556;2023-11-21T13:56:37;6.73;;;3.10;;
16922;SDS011;8578;50.938;13.556;2023-11-21T13:59:07;7.30;;;3.60;;
16922;SDS011;8578;50.938;13.556;2023-11-21T14:01:45;3.10;;;2.13;;
16922;SDS011;8578;50.938;13.556;2023-11-21T14:04:21;4.47;;;2.67;;
16922;SDS011;8578;50.938;13.556;2023-11-21T14:07:02;6.20;;;2.83;;
16922;SDS011;8578;50.938;13.556;2023-11-21T14:09:48;5.27;;;3.00;;
16922;SDS011;8578;50.938;13.556;2023-11-21T14:12:16;7.20;;;3.00;;
16922;SDS011;8578;50.938;13.556;2023-11-21T14:14:44;5.20;;;3.20;;
16922;SDS011;8578;50.938;13.556;2023-11-21T14:17:13;7.03;;;3.87;;
16922;SDS011;8578;50.938;13.556;2023-11-21T14:19:42;7.20;;;3.07;;
16922;SDS011;8578;50.938;13.556;2023-11-21T14:22:10;6.80;;;3.23;;
16922;SDS011;8578;50.938;13.556;2023-11-21T14:24:39;8.00;;;4.07;;
16922;SDS011;8578;50.938;13.556;2023-11-21T14:27:13;7.77;;;3.90;;
16922;SDS011;8578;50.938;13.556;2023-11-21T14:29:41;8.07;;;4.50;;
16922;SDS011;8578;50.938;13.556;2023-11-21T14:32:11;17.63;;;4.43;;
16922;SDS011;8578;50.938;13.556;2023-11-21T14:34:40;17.13;;;5.23;;
16922;SDS011;8578;50.938;13.556;2023-11-21T14:37:12;12.93;;;5.77;;
16922;SDS011;8578;50.938;13.556;2023-11-21T14:39:40;44.57;;;4.80;;
16922;SDS011;8578;50.938;13.556;2023-11-21T14:42:13;15.57;;;4.70;;
16922;SDS011;8578;50.938;13.556;2023-11-21T14:44:42;26.47;;;4.33;;
16922;SDS011;8578;50.938;13.556;2023-11-21T14:47:10;45.43;;;5.13;;
16922;SDS011;8578;50.938;13.556;2023-11-21T14:49:42;39.90;;;5.30;;
16922;SDS011;8578;50.938;13.556;2023-11-21T14:52:19;27.90;;;5.17;;
16922;SDS011;8578;50.938;13.556;2023-11-21T14:54:59;11.93;;;4.03;;
16922;SDS011;8578;50.938;13.556;2023-11-21T14:57:43;8.20;;;3.87;;
16922;SDS011;8578;50.938;13.556;2023-11-21T15:00:16;4.23;;;2.40;;
16922;SDS011;8578;50.938;13.556;2023-11-21T15:03:04;2.97;;;2.10;;
16922;SDS011;8578;50.938;13.556;2023-11-21T15:05:33;2.70;;;1.53;;